• Join FlightAware (Why Join?)
  • Login
  • US Flag 
01:38PM EDT


 

Airport Tracker/Info


-or-


 

Live Flight TrackerFlight Track Log ✈ RPA3396 ✈ 24-Nov-2013 ✈ KDCA - KALB

Flight Track Log - Related Links

Times and Time Zones

All times are in EST time to prevent confusion due to time zone crossing. See the RPA3396 flight status page for this flight to view local times or setup timezone preferences in your user account.

Time Position Orientation Groundspeed Altitude Reporting Facility
EST Latitude Longitude Course Direction KTS MPH feet Rate Location/Type
03:33PM 38.9019 -77.0908 81° East 152 175 3,000  Level Washington Center
03:34PM 39.1158 -76.8323 61° Northeast  Level Estimated
03:34PM 38.9453 -77.1369 320° Northwest 180 207 5,900  Level Washington Center
03:35PM 39.2037 -76.7635 90° East  Level Estimated
03:36PM 39.2916 -76.6946 83° East  Level Estimated
03:36PM 39.0328 -77.1361 360° North 144 166 11,100  Level Washington Center
03:37PM 39.3794 -76.6254 81° East  Level Estimated
03:37PM 39.0467 -77.0189 81° East 208 239 13,200  Level Washington Center
03:38PM 39.0647 -76.8936 79° East 276 318 15,200 1,800 Climbing Washington Center
03:39PM 39.0806 -76.7656 81° East 323 372 16,900 1,380 Climbing Washington Center
03:40PM 39.0986 -76.6294 80° East 365 420 18,100 1,440 Climbing Washington Center
03:41PM 39.1164 -76.4850 81° East 383 441 19,800 1,560 Climbing Washington Center
03:42PM 39.1361 -76.3356 80° East 403 464 21,200 1,320 Climbing Washington Center
03:43PM 39.1558 -76.1831 80° East 423 487 22,600 1,440 Climbing Washington Center
03:44PM 39.1753 -76.0225 81° East 441 507 24,100 1,500 Climbing Washington Center
03:45PM 39.2069 -75.8756 74° East 441 507 25,600 1,380 Climbing Washington Center
03:46PM 39.2736 -75.7792 48° Northeast 377 434 27,000 1,260 Climbing Washington Center
03:47PM 39.3447 -75.6856 45° Northeast 365 420 28,100 780 Climbing Washington Center
03:48PM 39.4494 -75.5511 45° Northeast 377 434 29,000 300 Climbing New York Center
03:49PM 39.5242 -75.4567 44° Northeast 371 427 29,000  Level New York Center
03:50PM 39.5989 -75.3592 45° Northeast 371 427 29,000  Level New York Center
03:51PM 39.6694 -75.2614 47° Northeast 371 427 29,000  Level New York Center
03:52PM 39.7489 -75.1450 48° Northeast 371 427 29,000  Level New York Center
03:53PM 39.8194 -75.0439 48° Northeast 376 433 29,000  Level New York Center
03:54PM 39.8939 -74.9403 47° Northeast 381 438 29,000  Level New York Center
03:55PM 39.9686 -74.8336 48° Northeast 381 438 29,000  Level New York Center
03:56PM 40.0344 -74.7344 49° Northeast 389 448 29,000  Level New York Center
03:57PM 40.1089 -74.6275 48° Northeast 394 453 29,000  Level New York Center
03:58PM 40.1875 -74.5178 47° Northeast 401 461 29,000  Level New York Center
03:59PM 40.2806 -74.4111 41° Northeast 401 461 29,000  Level New York Center
04:00PM 40.3667 -74.3203 39° Northeast 394 453 29,000  Level New York Center
04:01PM 40.4525 -74.2294 39° Northeast 394 453 29,000 -360 Level New York Center
04:03PM 40.6078 -74.0628 39° Northeast 409 471 28,000 -1,140 Descending Boston Center
04:04PM 40.6950 -73.9700 39° Northeast 417 480 25,900 -2,040 Descending Boston Center
04:05PM 40.7797 -73.8781 39° Northeast 398 458 24,000 -960 Descending Boston Center
04:06PM 40.8606 -73.7808 42° Northeast 394 453 24,000 -300 Level Boston Center
04:07PM 40.9472 -73.6953 37° Northeast 390 449 23,500 -540 Descending Boston Center
04:08PM 41.0389 -73.6275 29° Northeast 378 435 23,000 -600 Descending Boston Center
04:09PM 41.1292 -73.5603 29° Northeast 373 429 22,300 -1,080 Descending Boston Center
04:10PM 41.2186 -73.4928 30° Northeast 367 422 20,800 -1,620 Descending Boston Center
04:11PM 41.3264 -73.4442 19° North 355 409 19,100 -1,380 Descending Boston Center
04:12PM 41.4158 -73.4525 356° North 325 374 18,000 -600 Descending Boston Center
04:13PM 41.5086 -73.4631 355° North 332 382 18,000  Level Boston Center
04:14PM 41.6008 -73.4731 355° North 334 384 18,000  Level Boston Center
04:15PM 41.6986 -73.4828 356° North 330 380 18,000 -540 Level Boston Center
04:16PM 41.7906 -73.4931 355° North 332 382 17,000 -1,380 Descending Boston Center
04:17PM 41.8794 -73.5019 356° North 323 372 15,200 -1,800 Descending Boston Center
04:18PM 41.8964 -73.5008 North 325 374 14,900 -1,920 Descending Boston Center
04:18PM 41.9172 -73.5050 352° North 322 371 14,500 -1,500 Descending Boston Center
04:18PM 41.9639 -73.5122 353° North 308 354 13,600 -1,500 Descending Boston Center
04:19PM 41.9997 -73.5119 360° North 299 344 13,000 -1,620 Descending Boston Center
04:19PM 42.0514 -73.5114 360° North 293 337 12,000 -1,500 Descending Boston Center
04:20PM 42.0781 -73.5061 North 276 318 11,500 -1,020 Descending Boston Center
04:20PM 42.1239 -73.4997 North 280 322 11,000 -540 Descending Boston Center
04:21PM 42.1553 -73.4939 North 277 319 11,000  Level Boston Center
04:22PM 42.2022 -73.4878 North 282 325 11,000 -120 Level Boston Center
04:22PM 42.2319 -73.4847 North 279 321 10,900 -1,080 Descending Boston Center
04:23PM 42.2983 -73.4747 North 227 261 9,600 -2,160 Descending Boston Center
04:24PM 42.3553 -73.4675 North 218 251 6,800 -2,400 Descending Boston Center
04:25PM 42.4194 -73.4569 North 230 265 5,100 -900 Descending Boston Center
04:26PM 42.4811 -73.4483 North 229 264 5,000 -60 Descending Boston Center
04:27PM 42.5433 -73.4486 360° North 218 251 5,000  Level Boston Center
04:28PM 42.6094 -73.4503 359° North 226 260 5,000  Level Boston Center
04:29PM 42.6692 -73.4525 358° North 209 241 5,100  Climbing Boston Center
04:30PM 42.7167 -73.4742 341° North 180 207 5,000 -420 Descending Boston Center
04:31PM 42.7508 -73.5117 321° Northwest 152 175 4,300 -780 Descending Boston Center
04:32PM 42.7550 -73.5714 275° West 156 180 3,500 -900 Descending Boston Center
04:33PM 42.7531 -73.6289 267° West 156 180 2,600 -840 Descending Boston Center
04:35PM 42.7508 -73.7358 268° West 123 142 1,100 -720 Descending Boston Center
04:36PM 42.7492 -73.7792 267° West 115 132 500 -600 Descending Boston Center